createdAt,value
2022-10-04T00:00:47.225Z,10.71
2022-10-04T00:03:54.261Z,10.73
2022-10-04T00:07:03.244Z,10.71
2022-10-04T00:10:18.311Z,10.71
2022-10-04T00:13:26.958Z,10.75
2022-10-04T00:16:32.914Z,10.76
2022-10-04T00:19:45.596Z,10.79
2022-10-04T00:23:28.694Z,10.74
2022-10-04T00:27:11.260Z,10.72
2022-10-04T00:30:23.389Z,10.79
2022-10-04T00:33:36.806Z,10.77
2022-10-04T00:36:46.038Z,10.77
2022-10-04T00:40:00.944Z,10.77
2022-10-04T00:43:06.943Z,10.79
2022-10-04T00:46:14.643Z,10.80
2022-10-04T00:49:20.715Z,10.77
2022-10-04T00:52:28.110Z,10.76
2022-10-04T00:55:37.323Z,10.82
2022-10-04T00:58:50.596Z,10.75
2022-10-04T01:01:57.512Z,10.72
2022-10-04T01:05:03.867Z,10.74
2022-10-04T01:08:10.945Z,10.67
2022-10-04T01:11:20.599Z,10.73
2022-10-04T01:14:31.869Z,10.78
2022-10-04T01:17:35.128Z,10.75
2022-10-04T01:20:41.085Z,10.74
2022-10-04T01:23:47.414Z,10.81
2022-10-04T01:26:50.483Z,10.81
2022-10-04T01:29:53.487Z,10.83
2022-10-04T01:32:56.584Z,10.80
2022-10-04T01:35:59.711Z,10.76
2022-10-04T01:39:04.938Z,10.72
2022-10-04T01:42:11.618Z,10.71
2022-10-04T01:45:24.746Z,10.63
2022-10-04T01:48:35.217Z,10.71
2022-10-04T01:51:43.599Z,10.65
2022-10-04T01:54:51.584Z,10.60
2022-10-04T01:58:02.409Z,10.64
2022-10-04T02:01:16.040Z,10.63
2022-10-04T02:04:22.643Z,10.65
2022-10-04T02:07:30.057Z,10.57
2022-10-04T02:10:41.035Z,10.56
2022-10-04T02:13:48.956Z,10.56
2022-10-04T02:16:53.997Z,10.59
2022-10-04T02:19:59.160Z,10.58
2022-10-04T02:23:03.458Z,10.61
2022-10-04T02:26:08.752Z,10.57
2022-10-04T02:29:12.123Z,10.57
2022-10-04T02:32:33.563Z,10.53
2022-10-04T02:35:39.310Z,10.55
2022-10-04T02:38:45.502Z,10.59
2022-10-04T02:41:53.477Z,10.58
2022-10-04T02:45:04.627Z,10.59
2022-10-04T02:48:18.766Z,10.61
2022-10-04T02:51:27.209Z,10.66
2022-10-04T02:54:37.134Z,10.75
2022-10-04T02:57:43.279Z,10.63
2022-10-04T03:00:49.859Z,10.68
2022-10-04T03:03:54.707Z,10.69
2022-10-04T03:07:01.771Z,10.64
2022-10-04T03:10:09.982Z,10.61
2022-10-04T03:13:16.244Z,10.66
2022-10-04T03:16:20.336Z,10.71
2022-10-04T03:19:25.047Z,10.69
2022-10-04T03:22:28.580Z,10.75
2022-10-04T03:25:52.139Z,10.77
2022-10-04T03:28:56.932Z,10.84
2022-10-04T03:32:03.817Z,10.79
2022-10-04T03:35:17.566Z,10.87
2022-10-04T03:38:21.477Z,10.86
2022-10-04T03:41:26.828Z,10.83
2022-10-04T03:44:31.978Z,10.76
2022-10-04T03:47:37.631Z,10.80
2022-10-04T03:50:47.047Z,10.77
2022-10-04T03:53:52.476Z,10.74
2022-10-04T03:56:56.445Z,10.76
2022-10-04T04:00:02.721Z,10.74
2022-10-04T04:03:20.475Z,10.79
2022-10-04T04:06:25.265Z,10.79
2022-10-04T04:09:39.314Z,10.52
2022-10-04T04:12:47.945Z,10.71
2022-10-04T04:15:52.568Z,10.63
2022-10-04T04:18:59.893Z,10.65
2022-10-04T04:22:02.863Z,10.65
2022-10-04T04:25:12.670Z,10.59
2022-10-04T04:28:26.009Z,10.58
2022-10-04T04:31:34.675Z,10.49
2022-10-04T04:34:52.986Z,10.46
2022-10-04T04:38:18.934Z,10.46
2022-10-04T04:41:24.051Z,10.32
2022-10-04T04:44:27.865Z,10.16
2022-10-04T04:47:35.791Z,10.20
2022-10-04T04:50:41.978Z,10.19
2022-10-04T04:53:45.236Z,10.19
2022-10-04T04:56:52.113Z,10.22
2022-10-04T04:59:59.136Z,10.06
2022-10-04T05:03:06.131Z,10.06
2022-10-04T05:06:26.411Z,10.09
2022-10-04T05:09:33.781Z,10.13
2022-10-04T05:12:36.696Z,9.98
2022-10-04T05:15:41.823Z,9.89
2022-10-04T05:18:46.801Z,9.81
2022-10-04T05:21:51.309Z,9.94
2022-10-04T05:24:57.999Z,9.92
2022-10-04T05:28:01.589Z,10.00
2022-10-04T05:31:37.961Z,10.01
2022-10-04T05:34:45.451Z,9.87
2022-10-04T05:38:13.034Z,9.71
2022-10-04T05:41:28.152Z,9.63
2022-10-04T05:44:38.681Z,9.57
2022-10-04T05:47:43.545Z,9.49
2022-10-04T05:50:48.888Z,9.62
2022-10-04T05:53:53.403Z,9.70
2022-10-04T05:57:16.921Z,9.76
2022-10-04T06:00:22.213Z,9.66
2022-10-04T06:03:42.259Z,9.76
2022-10-04T06:06:53.756Z,9.84
2022-10-04T06:10:20.320Z,9.72
2022-10-04T06:13:41.647Z,9.83
2022-10-04T06:16:59.461Z,9.88
2022-10-04T06:20:32.689Z,9.87
2022-10-04T06:23:45.280Z,10.03
2022-10-04T06:26:55.388Z,10.07
2022-10-04T06:30:04.028Z,10.00
2022-10-04T06:33:29.410Z,10.13
2022-10-04T06:36:55.554Z,10.20
2022-10-04T06:40:22.547Z,10.25
2022-10-04T06:43:42.317Z,10.31
2022-10-04T06:46:50.973Z,10.34
2022-10-04T06:49:58.177Z,10.29
2022-10-04T06:53:16.610Z,10.26
2022-10-04T06:56:36.761Z,10.25
2022-10-04T06:59:53.959Z,10.41
2022-10-04T07:03:03.236Z,10.44
2022-10-04T07:06:11.326Z,10.51
2022-10-04T07:09:21.816Z,10.57
2022-10-04T07:12:27.139Z,10.46
2022-10-04T07:15:36.846Z,10.57
2022-10-04T07:18:57.425Z,10.57
2022-10-04T07:22:12.349Z,10.67
2022-10-04T07:25:22.750Z,10.61
2022-10-04T07:28:49.481Z,10.70
2022-10-04T07:32:04.310Z,10.65
2022-10-04T07:35:19.478Z,10.68
2022-10-04T07:38:28.186Z,10.77
2022-10-04T07:41:36.300Z,10.74
2022-10-04T07:44:44.183Z,10.83
2022-10-04T07:47:47.727Z,10.80
2022-10-04T07:51:03.209Z,10.85
2022-10-04T07:54:16.405Z,10.86
2022-10-04T07:57:25.999Z,10.88
2022-10-04T08:00:37.948Z,10.89
2022-10-04T08:03:52.807Z,10.88
2022-10-04T08:06:59.949Z,10.92
2022-10-04T08:10:13.345Z,10.94
2022-10-04T08:13:26.613Z,10.93
2022-10-04T08:16:38.006Z,10.98
2022-10-04T08:19:49.029Z,11.09
2022-10-04T08:23:02.549Z,11.13
2022-10-04T08:26:18.845Z,11.21
2022-10-04T08:29:44.675Z,11.21
2022-10-04T08:33:06.462Z,11.31
2022-10-04T08:36:20.548Z,11.35
2022-10-04T08:39:41.717Z,11.44
2022-10-04T08:43:25.691Z,11.42
2022-10-04T08:47:07.705Z,11.53
2022-10-04T08:50:53.157Z,11.52
2022-10-04T08:54:22.483Z,11.65
2022-10-04T08:58:07.678Z,11.69
2022-10-04T09:01:47.716Z,11.70
2022-10-04T09:05:14.874Z,11.75
2022-10-04T09:08:56.563Z,11.82
2022-10-04T09:12:35.716Z,11.88
2022-10-04T09:15:54.373Z,11.88
2022-10-04T09:19:35.457Z,11.99
2022-10-04T09:22:50.138Z,12.03
2022-10-04T09:26:15.348Z,12.08
2022-10-04T09:29:53.808Z,12.11
2022-10-04T09:33:27.023Z,12.26
2022-10-04T09:36:51.025Z,12.22
2022-10-04T09:40:26.466Z,12.33
2022-10-04T09:44:10.713Z,12.36
2022-10-04T09:47:53.534Z,12.38
2022-10-04T09:51:24.712Z,12.52
2022-10-04T09:54:56.855Z,12.56
2022-10-04T09:58:16.604Z,12.65
2022-10-04T10:01:28.399Z,12.72
2022-10-04T10:04:45.125Z,12.78
2022-10-04T10:07:53.129Z,12.78
2022-10-04T10:11:25.425Z,12.85
2022-10-04T10:15:01.939Z,12.88
2022-10-04T10:18:15.230Z,12.97
2022-10-04T10:21:36.515Z,13.02
2022-10-04T10:25:12.899Z,13.00
2022-10-04T10:28:43.452Z,13.15
2022-10-04T10:32:01.305Z,13.39
2022-10-04T10:35:27.478Z,13.55
2022-10-04T10:38:49.160Z,13.75
2022-10-04T10:42:19.864Z,13.76
2022-10-04T10:45:45.677Z,13.56
2022-10-04T10:49:08.514Z,13.71
2022-10-04T10:52:51.853Z,13.91
2022-10-04T10:56:35.184Z,14.05
2022-10-04T11:00:13.993Z,14.03
2022-10-04T11:03:41.480Z,14.22
2022-10-04T11:07:22.240Z,14.25
2022-10-04T11:10:52.017Z,14.20
2022-10-04T11:14:19.705Z,14.10
2022-10-04T11:17:49.837Z,14.41
2022-10-04T11:21:25.758Z,14.35
2022-10-04T11:24:50.649Z,14.49
2022-10-04T11:28:03.482Z,14.58
2022-10-04T11:31:38.201Z,14.44
2022-10-04T11:35:27.035Z,14.52
2022-10-04T11:39:02.739Z,14.46
2022-10-04T11:42:18.657Z,14.65
2022-10-04T11:45:57.351Z,14.79
2022-10-04T11:49:15.365Z,14.69
2022-10-04T11:52:56.732Z,14.80
2022-10-04T11:56:16.995Z,14.95
2022-10-04T11:59:36.066Z,15.00
2022-10-04T12:03:02.770Z,14.88
2022-10-04T12:06:19.514Z,15.01
2022-10-04T12:09:31.321Z,15.00
2022-10-04T12:12:53.382Z,15.10
2022-10-04T12:16:37.966Z,15.20
2022-10-04T12:20:02.837Z,15.09
2022-10-04T12:23:35.512Z,15.24
2022-10-04T12:27:11.804Z,15.08
2022-10-04T12:30:31.906Z,15.14
2022-10-04T12:33:41.012Z,15.26
2022-10-04T12:37:15.239Z,15.25
2022-10-04T12:40:28.383Z,15.34
2022-10-04T12:43:41.175Z,15.30
2022-10-04T12:46:54.218Z,15.42
2022-10-04T12:50:04.396Z,15.57
2022-10-04T12:53:19.465Z,15.60
2022-10-04T12:56:44.573Z,15.57
2022-10-04T12:59:56.666Z,15.62
2022-10-04T13:03:22.238Z,15.76
2022-10-04T13:06:34.262Z,15.70
2022-10-04T13:10:05.543Z,15.64
2022-10-04T13:13:44.859Z,15.51
2022-10-04T13:20:39.038Z,15.62
2022-10-04T13:23:56.016Z,15.62
2022-10-04T13:27:05.762Z,15.62
2022-10-04T13:30:23.404Z,15.54
2022-10-04T13:33:32.663Z,15.64
2022-10-04T13:36:51.370Z,15.68
2022-10-04T13:40:21.567Z,15.74
2022-10-04T13:44:12.097Z,15.66
2022-10-04T13:47:37.261Z,15.73
2022-10-04T13:51:00.130Z,15.85
2022-10-04T13:54:35.126Z,15.84
2022-10-04T13:57:47.108Z,15.90
2022-10-04T14:01:20.822Z,15.75
2022-10-04T14:04:51.722Z,15.76
2022-10-04T14:08:39.711Z,15.86
2022-10-04T14:12:32.405Z,15.73
2022-10-04T14:16:01.559Z,15.87
2022-10-04T14:19:38.130Z,15.90
2022-10-04T14:23:14.754Z,15.93
2022-10-04T14:26:52.333Z,15.94
2022-10-04T14:30:21.526Z,16.00
2022-10-04T14:33:58.374Z,15.96
2022-10-04T14:37:26.800Z,15.93
2022-10-04T14:40:57.317Z,15.90
2022-10-04T14:44:25.495Z,15.86
2022-10-04T14:47:42.849Z,15.83
2022-10-04T14:50:58.461Z,15.88
2022-10-04T14:54:05.639Z,15.82
2022-10-04T14:57:20.533Z,15.88
2022-10-04T15:00:29.379Z,15.95
2022-10-04T15:03:46.789Z,15.87
2022-10-04T15:06:56.365Z,15.94
2022-10-04T15:10:09.395Z,15.87
2022-10-04T15:13:29.890Z,15.78
2022-10-04T15:16:49.215Z,15.79
2022-10-04T15:20:10.439Z,15.72
2022-10-04T15:23:20.913Z,15.67
2022-10-04T15:26:51.563Z,15.66
2022-10-04T15:30:13.459Z,15.57
2022-10-04T15:33:32.516Z,15.57
2022-10-04T15:37:09.965Z,15.56
2022-10-04T15:40:59.667Z,15.50
2022-10-04T15:44:32.259Z,15.50
2022-10-04T15:51:55.205Z,15.42
2022-10-04T15:55:26.767Z,15.37
2022-10-04T15:58:52.699Z,15.34
2022-10-04T16:02:35.040Z,15.23
2022-10-04T16:09:50.323Z,15.21
2022-10-04T16:13:18.638Z,15.23
2022-10-04T16:16:52.315Z,15.06
2022-10-04T16:20:29.179Z,14.99
2022-10-04T16:23:36.161Z,14.76
2022-10-04T16:27:21.845Z,14.74
2022-10-04T16:30:29.024Z,14.64
2022-10-04T16:33:38.412Z,14.57
2022-10-04T16:36:50.398Z,14.46
2022-10-04T16:40:05.991Z,14.34
2022-10-04T16:43:15.212Z,14.35
2022-10-04T16:46:25.281Z,14.12
2022-10-04T16:49:40.248Z,14.05
2022-10-04T16:52:53.775Z,14.03
2022-10-04T16:56:02.610Z,13.96
2022-10-04T16:59:17.199Z,13.90
2022-10-04T17:02:38.905Z,13.87
2022-10-04T17:06:23.565Z,13.95
2022-10-04T17:09:32.707Z,13.93
2022-10-04T17:12:49.656Z,13.92
2022-10-04T17:16:23.106Z,13.59
2022-10-04T17:19:34.880Z,13.69
2022-10-04T17:22:54.187Z,13.65
2022-10-04T17:26:07.237Z,13.31
2022-10-04T17:29:31.831Z,13.29
2022-10-04T17:33:06.501Z,13.24
2022-10-04T17:36:30.159Z,13.15
2022-10-04T17:39:44.566Z,13.01
2022-10-04T17:42:56.938Z,12.83
2022-10-04T17:46:20.196Z,12.69
2022-10-04T17:50:00.050Z,12.50
2022-10-04T17:53:30.874Z,12.38
2022-10-04T17:56:38.578Z,12.19
2022-10-04T17:59:46.028Z,12.12
2022-10-04T18:03:13.827Z,12.19
2022-10-04T18:06:28.950Z,12.12
2022-10-04T18:09:42.406Z,12.24
2022-10-04T18:12:55.696Z,12.27
2022-10-04T18:16:11.575Z,12.04
2022-10-04T18:19:40.083Z,11.91
2022-10-04T18:22:48.110Z,11.66
2022-10-04T18:26:00.391Z,11.89
2022-10-04T18:29:08.068Z,11.82
2022-10-04T18:32:19.198Z,11.89
2022-10-04T18:35:27.370Z,11.84
2022-10-04T18:38:32.087Z,11.78
2022-10-04T18:41:54.991Z,11.71
2022-10-04T18:45:00.097Z,11.60
2022-10-04T18:48:15.048Z,11.52
2022-10-04T18:51:32.210Z,11.49
2022-10-04T18:54:46.463Z,11.42
2022-10-04T18:58:15.979Z,11.39
2022-10-04T19:01:52.192Z,11.44
2022-10-04T19:05:03.580Z,11.37
2022-10-04T19:08:21.868Z,11.46
2022-10-04T19:11:32.921Z,11.34
2022-10-04T19:14:46.796Z,11.40
2022-10-04T19:18:01.932Z,11.32
2022-10-04T19:21:14.101Z,11.33
2022-10-04T19:25:01.617Z,11.27
2022-10-04T19:28:11.548Z,11.17
2022-10-04T19:31:23.848Z,11.10
2022-10-04T19:34:38.807Z,11.20
2022-10-04T19:37:49.915Z,11.17
2022-10-04T19:41:06.398Z,11.26
2022-10-04T19:44:21.526Z,11.08
2022-10-04T19:47:41.421Z,11.11
2022-10-04T19:50:49.825Z,11.21
2022-10-04T19:53:59.434Z,11.10
2022-10-04T19:57:10.256Z,11.16
2022-10-04T20:00:15.373Z,11.23
2022-10-04T20:03:18.431Z,11.21
2022-10-04T20:06:22.576Z,11.24
2022-10-04T20:09:31.836Z,11.11
2022-10-04T20:12:41.555Z,11.05
2022-10-04T20:15:47.587Z,11.05
2022-10-04T20:19:00.914Z,10.95
2022-10-04T20:22:28.612Z,10.93
2022-10-04T20:26:04.480Z,10.96
2022-10-04T20:29:09.666Z,10.95
2022-10-04T20:32:51.567Z,10.84
2022-10-04T20:36:05.010Z,10.82
2022-10-04T20:39:08.970Z,10.84
2022-10-04T20:42:24.168Z,10.77
2022-10-04T20:45:30.428Z,10.82
2022-10-04T20:48:33.897Z,10.83
2022-10-04T20:51:37.568Z,10.66
2022-10-04T20:54:40.485Z,10.57
2022-10-04T20:57:43.423Z,10.50
2022-10-04T21:00:54.548Z,10.57
2022-10-04T21:04:13.537Z,10.53
2022-10-04T21:07:19.565Z,10.47
2022-10-04T21:10:22.499Z,10.50
2022-10-04T21:14:02.229Z,10.46
2022-10-04T21:17:26.761Z,10.35
2022-10-04T21:20:56.772Z,10.34
2022-10-04T21:24:19.698Z,10.28
2022-10-04T21:27:28.243Z,10.27
2022-10-04T21:30:31.053Z,10.15
2022-10-04T21:33:36.686Z,10.09
2022-10-04T21:36:39.539Z,10.15
2022-10-04T21:39:42.377Z,10.05
2022-10-04T21:42:45.231Z,10.09
2022-10-04T21:45:48.165Z,10.12
2022-10-04T21:48:52.539Z,10.15
2022-10-04T21:51:55.419Z,10.11
2022-10-04T21:54:58.254Z,10.07
2022-10-04T21:58:01.130Z,10.00
2022-10-04T22:01:04.148Z,10.01
2022-10-04T22:04:08.469Z,9.94
2022-10-04T22:07:11.564Z,9.90
2022-10-04T22:10:14.559Z,9.84
2022-10-04T22:13:17.411Z,9.90
2022-10-04T22:16:20.356Z,9.70
2022-10-04T22:19:24.713Z,9.81
2022-10-04T22:22:30.161Z,9.74
2022-10-04T22:25:35.531Z,9.75
2022-10-04T22:28:40.950Z,9.67
2022-10-04T22:31:47.509Z,9.62
2022-10-04T22:34:51.954Z,9.58
2022-10-04T22:37:54.915Z,9.64
2022-10-04T22:40:58.220Z,9.57
2022-10-04T22:44:07.650Z,9.61
2022-10-04T22:47:13.149Z,9.57
2022-10-04T22:50:27.668Z,9.53
2022-10-04T22:53:30.537Z,9.51
2022-10-04T22:56:33.504Z,9.51
2022-10-04T22:59:41.353Z,9.51
2022-10-04T23:02:44.245Z,9.41
2022-10-04T23:05:48.459Z,9.53
2022-10-04T23:08:51.323Z,9.53
2022-10-04T23:11:54.187Z,9.52
2022-10-04T23:14:57.055Z,9.50
2022-10-04T23:17:59.962Z,9.55
2022-10-04T23:21:16.350Z,9.44
2022-10-04T23:24:20.999Z,9.47
2022-10-04T23:27:24.627Z,9.38
2022-10-04T23:30:28.089Z,9.45
2022-10-04T23:33:31.057Z,9.44
2022-10-04T23:36:35.318Z,9.39
2022-10-04T23:39:38.277Z,9.45
2022-10-04T23:42:41.310Z,9.47
2022-10-04T23:45:44.534Z,9.44
2022-10-04T23:48:49.299Z,9.46
2022-10-04T23:52:00.054Z,9.44
2022-10-04T23:55:03.724Z,9.48
2022-10-04T23:58:14.506Z,9.47
